< < Back
Terminal Aerodrome Forecast


Current Version              Previous Versions:   1  2  3  4  5  6  7  8  9  

Terminal Aerodrome Forecast

346
FTUS42 KFFC 010326 AAA
TAFCSG
TAF AMD
KCSG 010326Z 0103/0124 VRB03KT P6SM SCT050 BKN080
     FM010900 00000KT P6SM BKN025
     FM011500 33003KT P6SM BKN035
     FM011800 29004KT P6SM SCT050=

Latest METAR

453
SAUS70 KWBC 011300 RRI
MTRCSG
METAR KCSG 011251Z 33004KT 10SM CLR 16/14 A3006 RMK AO2 SLP175
T01560139


USA.gov is the U.S. government's official web portal to all federal, state and local government web resources and services.